createdAt,value
2022-12-08T00:00:53.005Z,48.40
2022-12-08T00:01:53.088Z,54.00
2022-12-08T00:02:53.188Z,55.40
2022-12-08T00:03:52.948Z,52.20
2022-12-08T00:04:52.940Z,41.60
2022-12-08T00:05:52.915Z,45.10
2022-12-08T00:06:52.929Z,52.90
2022-12-08T00:07:52.928Z,50.20
2022-12-08T00:08:52.918Z,47.80
2022-12-08T00:09:52.860Z,52.50
2022-12-08T00:10:52.872Z,55.30
2022-12-08T00:11:52.838Z,48.70
2022-12-08T00:12:52.837Z,50.40
2022-12-08T00:13:52.841Z,45.50
2022-12-08T00:14:52.818Z,48.20
2022-12-08T00:15:52.799Z,47.70
2022-12-08T00:16:52.852Z,53.10
2022-12-08T00:17:52.769Z,50.40
2022-12-08T00:18:52.797Z,47.40
2022-12-08T00:19:52.731Z,46.80
2022-12-08T00:20:52.749Z,47.80
2022-12-08T00:21:52.709Z,45.80
2022-12-08T00:22:52.715Z,49.40
2022-12-08T00:23:52.752Z,51.80
2022-12-08T00:24:52.665Z,46.50
2022-12-08T00:25:52.689Z,51.10
2022-12-08T00:26:52.639Z,47.30
2022-12-08T00:27:52.770Z,50.00
2022-12-08T00:28:52.631Z,45.70
2022-12-08T00:29:52.656Z,45.00
2022-12-08T00:30:52.603Z,53.50
2022-12-08T00:31:52.727Z,49.50
2022-12-08T00:32:52.564Z,52.50
2022-12-08T00:33:52.579Z,51.30
2022-12-08T00:34:52.571Z,49.00
2022-12-08T00:35:52.548Z,45.70
2022-12-08T00:36:52.515Z,52.50
2022-12-08T00:37:57.556Z,47.80
2022-12-08T00:38:52.509Z,48.00
2022-12-08T00:40:00.102Z,49.00
2022-12-08T00:40:52.470Z,54.50
2022-12-08T00:41:52.481Z,47.70
2022-12-08T00:42:52.442Z,48.00
2022-12-08T00:43:52.463Z,46.40
2022-12-08T00:44:52.424Z,44.20
2022-12-08T00:45:52.515Z,48.30
2022-12-08T00:46:52.387Z,45.80
2022-12-08T00:47:52.401Z,44.30
2022-12-08T00:48:52.392Z,43.50
2022-12-08T00:49:52.379Z,41.60
2022-12-08T00:50:52.367Z,50.60
2022-12-08T00:51:52.349Z,46.80
2022-12-08T00:52:52.315Z,46.00
2022-12-08T00:53:52.325Z,44.60
2022-12-08T00:54:52.288Z,50.60
2022-12-08T00:55:52.329Z,46.30
2022-12-08T00:56:52.270Z,43.80
2022-12-08T00:57:52.269Z,43.70
2022-12-08T00:58:52.232Z,43.70
2022-12-08T00:59:52.251Z,42.50
2022-12-08T01:00:52.287Z,48.30
2022-12-08T01:01:52.217Z,44.60
2022-12-08T01:02:52.236Z,39.00
2022-12-08T01:03:52.303Z,46.20
2022-12-08T01:04:52.161Z,46.80
2022-12-08T01:05:52.170Z,40.30
2022-12-08T01:06:52.161Z,42.10
2022-12-08T01:07:52.219Z,39.60
2022-12-08T01:08:52.110Z,43.50
2022-12-08T01:09:52.115Z,44.90
2022-12-08T01:10:52.083Z,42.30
2022-12-08T01:11:52.130Z,37.80
2022-12-08T01:12:52.056Z,42.60
2022-12-08T01:13:52.068Z,40.20
2022-12-08T01:14:52.036Z,38.10
2022-12-08T01:15:52.046Z,43.20
2022-12-08T01:16:52.074Z,39.80
2022-12-08T01:17:52.020Z,37.70
2022-12-08T01:18:51.990Z,37.80
2022-12-08T01:19:51.988Z,35.50
2022-12-08T01:20:51.962Z,41.30
2022-12-08T01:21:51.977Z,38.00
2022-12-08T01:22:51.975Z,42.00
2022-12-08T01:23:51.945Z,39.70
2022-12-08T01:24:51.922Z,32.70
2022-12-08T01:25:51.916Z,41.50
2022-12-08T01:26:51.879Z,37.10
2022-12-08T01:27:51.916Z,39.30
2022-12-08T01:28:51.857Z,42.80
2022-12-08T01:29:51.864Z,34.70
2022-12-08T01:30:51.875Z,33.60
2022-12-08T01:31:51.841Z,36.70
2022-12-08T01:32:51.849Z,35.20
2022-12-08T01:33:51.814Z,38.60
2022-12-08T01:34:51.779Z,36.90
2022-12-08T01:35:51.788Z,43.30
2022-12-08T01:36:51.746Z,39.10
2022-12-08T01:37:51.772Z,43.30
2022-12-08T01:38:51.808Z,37.90
2022-12-08T01:39:51.751Z,37.90
2022-12-08T01:40:51.711Z,39.10
2022-12-08T01:41:51.720Z,45.00
2022-12-08T01:42:51.685Z,35.80
2022-12-08T01:43:51.745Z,37.40
2022-12-08T01:44:51.664Z,36.30
2022-12-08T01:45:51.704Z,33.10
2022-12-08T01:46:51.633Z,35.90
2022-12-08T01:47:51.703Z,34.10
2022-12-08T01:48:51.640Z,34.90
2022-12-08T01:49:51.622Z,36.60
2022-12-08T01:50:51.581Z,34.50
2022-12-08T01:51:51.585Z,35.10
2022-12-08T01:52:51.547Z,36.90
2022-12-08T01:53:51.553Z,38.60
2022-12-08T01:54:51.572Z,35.80
2022-12-08T01:55:51.533Z,38.90
2022-12-08T01:56:51.502Z,38.90
2022-12-08T01:57:51.505Z,37.80
2022-12-08T01:58:51.475Z,38.20
2022-12-08T01:59:51.524Z,37.50
2022-12-08T02:00:51.556Z,45.70
2022-12-08T02:01:51.492Z,41.30
2022-12-08T02:02:51.451Z,40.50
2022-12-08T02:03:51.435Z,47.30
2022-12-08T02:04:51.444Z,43.10
2022-12-08T02:05:51.409Z,48.40
2022-12-08T02:06:51.380Z,45.60
2022-12-08T02:07:51.452Z,43.30
2022-12-08T02:08:51.346Z,51.30
2022-12-08T02:09:51.366Z,62.80
2022-12-08T02:10:51.362Z,47.60
2022-12-08T02:11:51.332Z,56.40
2022-12-08T02:12:51.297Z,58.10
2022-12-08T02:13:51.278Z,75.50
2022-12-08T02:14:51.267Z,66.70
2022-12-08T02:15:51.361Z,58.90
2022-12-08T02:16:51.248Z,59.40
2022-12-08T02:17:51.251Z,79.60
2022-12-08T02:19:14.764Z,54.50
2022-12-08T02:19:51.229Z,48.10
2022-12-08T02:20:51.237Z,46.70
2022-12-08T02:21:51.213Z,43.70
2022-12-08T02:22:51.168Z,49.90
2022-12-08T02:23:51.185Z,45.10
2022-12-08T02:24:51.146Z,45.50
2022-12-08T02:25:51.153Z,44.40
2022-12-08T02:26:51.160Z,45.00
2022-12-08T02:27:51.132Z,52.40
2022-12-08T02:28:51.093Z,64.00
2022-12-08T02:29:51.102Z,47.40
2022-12-08T02:30:51.145Z,76.10
2022-12-08T02:31:51.102Z,56.40
2022-12-08T02:32:51.050Z,49.20
2022-12-08T02:33:51.052Z,70.90
2022-12-08T02:34:51.023Z,47.90
2022-12-08T02:35:51.035Z,46.90
2022-12-08T02:36:51.043Z,68.20
2022-12-08T02:37:51.013Z,57.80
2022-12-08T02:38:50.962Z,55.60
2022-12-08T02:39:50.972Z,71.80
2022-12-08T02:40:50.943Z,68.10
2022-12-08T02:41:50.962Z,71.60
2022-12-08T02:42:50.956Z,68.50
2022-12-08T02:43:50.928Z,72.70
2022-12-08T02:44:50.893Z,68.10
2022-12-08T02:45:50.969Z,55.40
2022-12-08T02:46:50.857Z,50.20
2022-12-08T02:47:50.917Z,50.80
2022-12-08T02:48:50.850Z,75.60
2022-12-08T02:49:50.867Z,86.00
2022-12-08T02:50:50.815Z,70.60
2022-12-08T02:51:50.820Z,73.70
2022-12-08T02:52:50.834Z,63.30
2022-12-08T02:53:50.791Z,178.20
2022-12-08T02:54:50.785Z,112.50
2022-12-08T02:55:50.770Z,113.90
2022-12-08T02:56:50.736Z,150.00
2022-12-08T02:57:50.777Z,244.50
2022-12-08T02:58:50.747Z,209.50
2022-12-08T02:59:50.701Z,189.80
2022-12-08T03:00:50.688Z,238.30
2022-12-08T03:01:50.762Z,142.40
2022-12-08T03:02:50.729Z,116.60
2022-12-08T03:03:50.732Z,55.30
2022-12-08T03:04:50.641Z,66.60
2022-12-08T03:05:50.676Z,43.80
2022-12-08T03:06:50.621Z,46.90
2022-12-08T03:07:50.739Z,41.10
2022-12-08T03:08:50.627Z,43.60
2022-12-08T03:09:50.595Z,43.40
2022-12-08T03:10:50.566Z,49.60
2022-12-08T03:11:50.571Z,55.00
2022-12-08T03:12:50.545Z,62.20
2022-12-08T03:13:50.545Z,44.00
2022-12-08T03:14:50.536Z,67.80
2022-12-08T03:15:50.574Z,55.10
2022-12-08T03:16:50.490Z,61.20
2022-12-08T03:17:50.488Z,57.90
2022-12-08T03:18:50.462Z,71.90
2022-12-08T03:19:50.497Z,129.70
2022-12-08T03:20:50.434Z,77.80
2022-12-08T03:21:50.451Z,79.50
2022-12-08T03:22:50.408Z,152.70
2022-12-08T03:23:50.440Z,121.50
2022-12-08T03:24:50.424Z,100.50
2022-12-08T03:25:50.394Z,190.30
2022-12-08T03:26:50.365Z,133.50
2022-12-08T03:27:50.367Z,131.80
2022-12-08T03:28:50.326Z,173.20
2022-12-08T03:29:50.343Z,202.20
2022-12-08T03:30:50.396Z,157.10
2022-12-08T03:31:50.324Z,178.70
2022-12-08T03:32:50.288Z,192.30
2022-12-08T03:33:50.292Z,195.00
2022-12-08T03:34:50.280Z,196.70
2022-12-08T03:35:50.269Z,295.10
2022-12-08T03:36:50.234Z,299.50
2022-12-08T03:37:50.243Z,193.10
2022-12-08T03:38:50.207Z,234.90
2022-12-08T03:39:50.242Z,172.60
2022-12-08T03:40:50.180Z,211.50
2022-12-08T03:41:50.189Z,161.20
2022-12-08T03:42:50.153Z,184.50
2022-12-08T03:43:50.166Z,148.10
2022-12-08T03:44:50.127Z,129.70
2022-12-08T03:45:50.163Z,122.20
2022-12-08T03:46:50.098Z,90.90
2022-12-08T03:47:50.123Z,175.60
2022-12-08T03:48:50.078Z,169.80
2022-12-08T03:49:50.094Z,167.80
2022-12-08T03:50:50.082Z,221.60
2022-12-08T03:51:50.062Z,127.60
2022-12-08T03:52:50.025Z,186.30
2022-12-08T03:53:50.034Z,94.60
2022-12-08T03:54:49.998Z,137.40
2022-12-08T03:55:50.038Z,126.10
2022-12-08T03:56:49.980Z,182.00
2022-12-08T03:57:49.993Z,187.10
2022-12-08T03:58:49.962Z,243.60
2022-12-08T03:59:49.962Z,148.20
2022-12-08T04:00:49.927Z,229.30
2022-12-08T04:01:50.024Z,213.10
2022-12-08T04:02:49.954Z,291.70
2022-12-08T04:03:49.914Z,207.60
2022-12-08T04:04:49.879Z,180.70
2022-12-08T04:05:49.877Z,189.20
2022-12-08T04:06:49.872Z,210.10
2022-12-08T04:07:49.971Z,212.00
2022-12-08T04:08:49.823Z,167.20
2022-12-08T04:09:49.825Z,134.60
2022-12-08T04:10:49.796Z,155.90
2022-12-08T04:11:49.857Z,170.10
2022-12-08T04:12:49.774Z,127.60
2022-12-08T04:13:49.792Z,158.30
2022-12-08T04:14:49.770Z,153.90
2022-12-08T04:15:49.792Z,221.00
2022-12-08T04:16:49.723Z,176.00
2022-12-08T04:17:49.777Z,162.80
2022-12-08T04:18:49.688Z,234.20
2022-12-08T04:19:49.702Z,167.20
2022-12-08T04:20:49.666Z,73.60
2022-12-08T04:21:49.679Z,89.90
2022-12-08T04:22:49.675Z,59.60
2022-12-08T04:23:49.665Z,60.70
2022-12-08T04:24:49.635Z,87.80
2022-12-08T04:25:49.641Z,79.00
2022-12-08T04:26:49.590Z,101.50
2022-12-08T04:27:49.643Z,80.20
2022-12-08T04:28:49.569Z,118.90
2022-12-08T04:29:49.577Z,132.90
2022-12-08T04:30:49.540Z,121.00
2022-12-08T04:31:49.590Z,89.20
2022-12-08T04:32:49.512Z,183.70
2022-12-08T04:33:49.593Z,175.20
2022-12-08T04:34:49.490Z,263.10
2022-12-08T04:35:49.510Z,298.40
2022-12-08T04:36:49.463Z,249.90
2022-12-08T04:37:49.448Z,254.50
2022-12-08T04:38:49.485Z,292.50
2022-12-08T04:39:49.437Z,328.40
2022-12-08T04:40:49.440Z,250.20
2022-12-08T04:41:49.409Z,236.40
2022-12-08T04:42:49.447Z,182.40
2022-12-08T04:43:49.400Z,221.00
2022-12-08T04:44:49.380Z,112.70
2022-12-08T04:45:49.345Z,53.90
2022-12-08T04:46:49.387Z,44.40
2022-12-08T04:47:49.326Z,53.60
2022-12-08T04:48:49.368Z,60.10
2022-12-08T04:49:49.313Z,46.50
2022-12-08T04:50:49.343Z,70.50
2022-12-08T04:51:49.280Z,99.60
2022-12-08T04:52:49.282Z,83.30
2022-12-08T04:53:49.246Z,84.60
2022-12-08T04:54:49.285Z,103.80
2022-12-08T04:55:49.228Z,168.10
2022-12-08T04:56:49.229Z,108.40
2022-12-08T04:57:49.195Z,46.20
2022-12-08T04:58:49.201Z,37.30
2022-12-08T04:59:49.407Z,35.50
2022-12-08T05:00:49.195Z,51.40
2022-12-08T05:01:49.302Z,51.30
2022-12-08T05:02:49.204Z,39.40
2022-12-08T05:03:49.120Z,69.60
2022-12-08T05:04:49.165Z,73.40
2022-12-08T05:05:49.090Z,110.00
2022-12-08T05:06:49.103Z,86.70
2022-12-08T05:07:49.109Z,109.00
2022-12-08T05:08:49.080Z,116.70
2022-12-08T05:09:49.045Z,104.60
2022-12-08T05:10:49.076Z,110.00
2022-12-08T05:11:49.424Z,161.80
2022-12-08T05:12:49.025Z,118.80
2022-12-08T05:13:48.998Z,74.80
2022-12-08T05:14:49.007Z,139.00
2022-12-08T05:15:49.151Z,127.10
2022-12-08T05:16:49.037Z,186.70
2022-12-08T05:17:48.942Z,218.10
2022-12-08T05:18:48.948Z,277.10
2022-12-08T05:19:48.922Z,204.80
2022-12-08T05:20:48.964Z,265.50
2022-12-08T05:21:48.919Z,219.70
2022-12-08T05:22:48.898Z,208.70
2022-12-08T05:23:48.887Z,166.90
2022-12-08T05:24:48.880Z,245.30
2022-12-08T05:25:48.885Z,245.20
2022-12-08T05:26:48.868Z,237.10
2022-12-08T05:27:48.814Z,241.60
2022-12-08T05:28:48.817Z,280.90
2022-12-08T05:29:48.810Z,255.10
2022-12-08T05:30:48.814Z,227.10
2022-12-08T05:31:48.887Z,286.40
2022-12-08T05:32:48.767Z,305.60
2022-12-08T05:33:48.750Z,260.70
2022-12-08T05:34:48.759Z,214.40
2022-12-08T05:35:48.762Z,245.40
2022-12-08T05:36:48.748Z,288.70
2022-12-08T05:37:48.681Z,224.30
2022-12-08T05:38:48.692Z,249.00
2022-12-08T05:39:48.676Z,298.70
2022-12-08T05:40:48.674Z,272.00
2022-12-08T05:41:48.663Z,278.80
2022-12-08T05:42:48.651Z,318.90
2022-12-08T05:43:48.623Z,273.20
2022-12-08T05:44:48.620Z,263.40
2022-12-08T05:45:48.667Z,297.90
2022-12-08T05:46:48.592Z,270.00
2022-12-08T05:47:48.581Z,273.60
2022-12-08T05:48:48.576Z,240.60
2022-12-08T05:49:48.546Z,248.00
2022-12-08T05:50:48.575Z,286.40
2022-12-08T05:51:48.508Z,277.30
2022-12-08T05:52:48.544Z,271.70
2022-12-08T05:53:48.477Z,260.60
2022-12-08T05:54:48.494Z,267.90
2022-12-08T05:55:48.459Z,241.90
2022-12-08T05:56:48.579Z,291.70
2022-12-08T05:57:48.471Z,272.20
2022-12-08T05:58:48.514Z,279.90
2022-12-08T05:59:48.428Z,288.50
2022-12-08T06:00:48.441Z,240.30
2022-12-08T06:01:48.448Z,267.90
2022-12-08T06:02:48.579Z,219.90
2022-12-08T06:03:48.397Z,224.20
2022-12-08T06:04:48.379Z,224.90
2022-12-08T06:05:48.327Z,195.80
2022-12-08T06:06:48.355Z,230.60
2022-12-08T06:07:48.318Z,284.80
2022-12-08T06:08:48.427Z,296.70
2022-12-08T06:09:48.289Z,281.00
2022-12-08T06:10:48.328Z,286.90
2022-12-08T06:11:48.289Z,324.30
2022-12-08T06:12:48.261Z,258.00
2022-12-08T06:13:48.266Z,284.00
2022-12-08T06:14:48.232Z,261.20
2022-12-08T06:15:48.207Z,191.90
2022-12-08T06:16:48.244Z,209.60
2022-12-08T06:17:48.176Z,206.10
2022-12-08T06:18:48.184Z,191.80
2022-12-08T06:19:48.195Z,202.30
2022-12-08T06:20:48.163Z,177.90
2022-12-08T06:21:48.128Z,180.70
2022-12-08T06:22:48.147Z,132.20
2022-12-08T06:23:48.107Z,133.40
2022-12-08T06:24:48.155Z,152.00
2022-12-08T06:25:48.094Z,158.00
2022-12-08T06:26:48.093Z,176.00
2022-12-08T06:27:48.055Z,144.40
2022-12-08T06:28:48.067Z,208.10
2022-12-08T06:29:48.059Z,235.30
2022-12-08T06:30:48.048Z,182.50
2022-12-08T06:31:48.111Z,176.80
2022-12-08T06:32:48.030Z,184.10
2022-12-08T06:33:47.974Z,197.60
2022-12-08T06:34:48.049Z,153.10
2022-12-08T06:35:47.958Z,124.60
2022-12-08T06:36:47.958Z,104.50
2022-12-08T06:37:48.001Z,183.10
2022-12-08T06:38:47.942Z,186.80
2022-12-08T06:39:47.899Z,151.00
2022-12-08T06:40:47.939Z,245.90
2022-12-08T06:41:47.899Z,225.50
2022-12-08T06:42:47.913Z,178.80
2022-12-08T06:43:47.855Z,240.60
2022-12-08T06:44:47.801Z,195.90
2022-12-08T06:45:47.890Z,211.10
2022-12-08T06:46:47.775Z,162.70
2022-12-08T06:47:47.739Z,85.20
2022-12-08T06:48:47.814Z,117.90
2022-12-08T06:49:47.752Z,118.90
2022-12-08T06:50:47.790Z,77.30
2022-12-08T06:51:47.692Z,61.70
2022-12-08T06:53:00.780Z,62.80
2022-12-08T06:53:47.671Z,76.80
2022-12-08T06:54:47.684Z,67.30
2022-12-08T06:56:03.075Z,75.60
2022-12-08T06:56:47.683Z,106.20
2022-12-08T06:57:47.622Z,82.00
2022-12-08T06:58:52.340Z,140.80
2022-12-08T06:59:47.760Z,66.40
2022-12-08T07:00:47.730Z,153.40
2022-12-08T07:01:47.660Z,120.40
2022-12-08T07:02:47.644Z,221.60
2022-12-08T07:03:47.543Z,251.20
2022-12-08T07:04:47.552Z,227.00
2022-12-08T07:05:47.513Z,256.00
2022-12-08T07:06:47.561Z,267.30
2022-12-08T07:07:47.569Z,188.00
2022-12-08T07:08:47.517Z,145.70
2022-12-08T07:09:47.464Z,178.70
2022-12-08T07:10:47.547Z,148.30
2022-12-08T07:11:47.461Z,107.60
2022-12-08T07:12:47.453Z,107.40
2022-12-08T07:13:47.434Z,159.90
2022-12-08T07:14:47.451Z,126.90
2022-12-08T07:15:47.397Z,148.80
2022-12-08T07:16:47.465Z,112.50
2022-12-08T07:17:47.392Z,164.40
2022-12-08T07:18:47.374Z,110.10
2022-12-08T07:19:47.356Z,96.30
2022-12-08T07:20:47.351Z,135.20
2022-12-08T07:21:47.310Z,100.30
2022-12-08T07:22:47.351Z,85.10
2022-12-08T07:23:50.160Z,104.00
2022-12-08T07:24:47.303Z,69.70
2022-12-08T07:25:47.259Z,176.40
2022-12-08T07:26:47.273Z,176.00
2022-12-08T07:27:47.307Z,203.70
2022-12-08T07:28:47.387Z,197.60
2022-12-08T07:29:47.239Z,195.70
2022-12-08T07:30:47.283Z,266.20
2022-12-08T07:31:47.181Z,226.70
2022-12-08T07:32:47.210Z,241.40
2022-12-08T07:33:47.194Z,207.50
2022-12-08T07:34:47.463Z,248.40
2022-12-08T07:35:49.475Z,338.30
2022-12-08T07:36:47.197Z,288.50
2022-12-08T07:37:47.127Z,261.20
2022-12-08T07:38:47.154Z,284.70
2022-12-08T07:39:47.085Z,270.60
2022-12-08T07:40:47.086Z,215.30
2022-12-08T07:41:47.137Z,215.60
2022-12-08T07:42:47.076Z,280.60
2022-12-08T07:43:47.088Z,291.20
2022-12-08T07:44:47.039Z,281.80
2022-12-08T07:45:47.068Z,218.00
2022-12-08T07:46:47.017Z,301.70
2022-12-08T07:47:46.981Z,250.50
2022-12-08T07:48:47.034Z,234.40
2022-12-08T07:49:47.027Z,229.80
2022-12-08T07:50:46.971Z,173.10
2022-12-08T07:51:46.936Z,166.60
2022-12-08T07:52:46.946Z,204.90
2022-12-08T07:53:53.192Z,186.70
2022-12-08T07:54:46.952Z,136.80
2022-12-08T07:55:46.890Z,170.20
2022-12-08T07:56:46.891Z,140.10
2022-12-08T07:57:46.861Z,117.90
2022-12-08T07:58:46.911Z,93.60
2022-12-08T07:59:46.867Z,62.80
2022-12-08T08:00:46.858Z,69.70
2022-12-08T08:01:52.778Z,77.80
2022-12-08T08:02:46.842Z,74.30
2022-12-08T08:03:46.772Z,73.40
2022-12-08T08:04:46.915Z,70.30
2022-12-08T08:05:46.753Z,57.00
2022-12-08T08:06:46.761Z,66.20
2022-12-08T08:07:46.802Z,55.00
2022-12-08T08:08:46.728Z,73.70
2022-12-08T08:09:46.693Z,74.30
2022-12-08T08:10:46.753Z,63.90
2022-12-08T08:12:01.276Z,53.60
2022-12-08T08:12:46.727Z,109.00
2022-12-08T08:13:46.650Z,77.30
2022-12-08T08:14:46.694Z,70.50
2022-12-08T08:15:46.772Z,69.80
2022-12-08T08:16:46.773Z,55.40
2022-12-08T08:17:46.587Z,46.80
2022-12-08T08:18:46.602Z,48.80
2022-12-08T08:19:46.581Z,56.50
2022-12-08T08:20:46.813Z,50.90
2022-12-08T08:21:46.829Z,53.00
2022-12-08T08:22:46.552Z,49.70
2022-12-08T08:23:46.528Z,49.40
2022-12-08T08:24:46.532Z,54.00
2022-12-08T08:25:46.539Z,54.30
2022-12-08T08:26:46.503Z,57.60
2022-12-08T08:27:46.463Z,58.10
2022-12-08T08:28:46.473Z,58.20
2022-12-08T08:29:46.456Z,57.70
2022-12-08T08:30:46.507Z,50.80
2022-12-08T08:31:46.464Z,53.60
2022-12-08T08:32:46.434Z,64.30
2022-12-08T08:33:46.408Z,59.70
2022-12-08T08:34:46.409Z,60.20
2022-12-08T08:35:46.419Z,53.30
2022-12-08T08:36:46.449Z,57.80
2022-12-08T08:37:49.159Z,52.20
2022-12-08T08:38:46.344Z,61.80
2022-12-08T08:39:46.314Z,60.10
2022-12-08T08:40:46.328Z,57.70
2022-12-08T08:41:46.354Z,53.90
2022-12-08T08:42:46.316Z,57.50
2022-12-08T08:43:46.259Z,54.30
2022-12-08T08:44:46.266Z,60.20
2022-12-08T08:45:46.249Z,57.40
2022-12-08T08:46:46.324Z,58.40
2022-12-08T08:47:46.254Z,55.10
2022-12-08T08:48:46.230Z,62.10
2022-12-08T08:49:46.217Z,60.50
2022-12-08T08:50:46.206Z,55.40
2022-12-08T08:51:46.209Z,49.10
2022-12-08T08:52:46.201Z,54.40
2022-12-08T08:53:46.172Z,50.20
2022-12-08T08:54:46.121Z,53.60
2022-12-08T08:55:46.131Z,45.20
2022-12-08T08:56:46.103Z,48.80
2022-12-08T08:57:46.305Z,51.30
2022-12-08T08:58:46.080Z,45.30
2022-12-08T08:59:46.084Z,45.60
2022-12-08T09:00:46.052Z,50.60
2022-12-08T09:01:46.156Z,43.70
2022-12-08T09:02:46.051Z,43.70
2022-12-08T09:03:46.046Z,45.60
2022-12-08T09:04:46.111Z,47.90
2022-12-08T09:05:46.071Z,45.40
2022-12-08T09:06:45.978Z,47.20
2022-12-08T09:07:46.061Z,40.30
2022-12-08T09:08:45.983Z,38.60
2022-12-08T09:09:45.952Z,41.90
2022-12-08T09:10:45.924Z,43.70
2022-12-08T09:11:45.924Z,42.40
2022-12-08T09:12:45.900Z,35.50
2022-12-08T09:13:45.946Z,40.10
2022-12-08T09:14:45.867Z,40.00
2022-12-08T09:15:45.941Z,41.30
2022-12-08T09:16:45.902Z,42.50
2022-12-08T09:17:45.852Z,40.50
2022-12-08T09:18:45.819Z,40.20
2022-12-08T09:19:45.877Z,39.70
2022-12-08T09:20:45.786Z,38.40
2022-12-08T09:21:45.804Z,37.80
2022-12-08T09:22:45.777Z,35.50
2022-12-08T09:23:45.774Z,34.90
2022-12-08T09:24:45.782Z,36.70
2022-12-08T09:25:45.751Z,37.80
2022-12-08T09:26:45.722Z,30.70
2022-12-08T09:27:45.725Z,38.30
2022-12-08T09:28:45.683Z,32.30
2022-12-08T09:29:45.711Z,33.80
2022-12-08T09:30:45.695Z,37.40
2022-12-08T09:31:45.733Z,31.50
2022-12-08T09:32:45.637Z,35.70
2022-12-08T09:33:45.654Z,31.10
2022-12-08T09:34:51.775Z,34.30
2022-12-08T09:35:45.720Z,33.60
2022-12-08T09:36:45.653Z,35.00
2022-12-08T09:37:45.596Z,32.50
2022-12-08T09:38:45.574Z,31.80
2022-12-08T09:39:45.583Z,29.10
2022-12-08T09:40:45.537Z,29.60
2022-12-08T09:41:48.265Z,32.20
2022-12-08T09:42:45.521Z,30.60
2022-12-08T09:43:45.520Z,29.50
2022-12-08T09:44:45.494Z,30.10
2022-12-08T09:45:45.502Z,35.20
2022-12-08T09:46:45.606Z,27.40
2022-12-08T09:47:45.488Z,30.50
2022-12-08T09:48:45.472Z,28.50
2022-12-08T09:49:45.445Z,27.00
2022-12-08T09:50:45.433Z,31.90
2022-12-08T09:51:45.462Z,29.30
2022-12-08T09:52:45.395Z,29.10
2022-12-08T09:53:45.390Z,26.70
2022-12-08T09:54:45.362Z,28.30
2022-12-08T09:55:45.371Z,28.30
2022-12-08T09:56:45.404Z,28.70
2022-12-08T09:57:45.346Z,27.20
2022-12-08T09:58:45.309Z,25.80
2022-12-08T09:59:45.322Z,29.20
2022-12-08T10:00:45.298Z,28.10
2022-12-08T10:01:45.354Z,28.00
2022-12-08T10:02:45.291Z,26.40
2022-12-08T10:03:45.286Z,28.00
2022-12-08T10:04:45.303Z,28.80
2022-12-08T10:05:45.268Z,25.80
2022-12-08T10:06:45.217Z,27.20
2022-12-08T10:07:45.358Z,28.20
2022-12-08T10:08:45.176Z,28.40
2022-12-08T10:09:45.284Z,30.40
2022-12-08T10:10:45.153Z,28.40
2022-12-08T10:11:45.175Z,26.50
2022-12-08T10:12:45.278Z,26.90
2022-12-08T10:13:45.139Z,25.80
2022-12-08T10:14:45.104Z,26.80
2022-12-08T10:15:45.160Z,24.10
2022-12-08T10:16:45.120Z,23.70
2022-12-08T10:17:45.332Z,26.10
2022-12-08T10:18:45.046Z,23.20
2022-12-08T10:19:45.059Z,28.00
2022-12-08T10:20:45.030Z,25.90
2022-12-08T10:21:45.072Z,24.40
2022-12-08T10:22:45.287Z,25.40
2022-12-08T10:23:45.041Z,27.20
2022-12-08T10:24:44.990Z,25.40
2022-12-08T10:25:44.982Z,25.40
2022-12-08T10:26:44.949Z,27.00
2022-12-08T10:27:44.992Z,25.70
2022-12-08T10:28:45.765Z,25.70
2022-12-08T10:29:44.942Z,27.30
2022-12-08T10:30:44.960Z,25.40
2022-12-08T10:31:44.986Z,31.00
2022-12-08T10:32:44.885Z,25.10
2022-12-08T10:33:45.088Z,26.40
2022-12-08T10:34:44.861Z,24.30
2022-12-08T10:35:44.859Z,25.20
2022-12-08T10:36:44.922Z,26.90
2022-12-08T10:37:44.842Z,26.20
2022-12-08T10:38:44.846Z,20.20
2022-12-08T10:39:44.803Z,23.90
2022-12-08T10:40:45.884Z,25.50
2022-12-08T10:41:44.781Z,24.30
2022-12-08T10:42:44.747Z,23.60
2022-12-08T10:43:44.824Z,22.00
2022-12-08T10:44:44.789Z,22.50
2022-12-08T10:45:44.738Z,21.30
2022-12-08T10:46:44.788Z,19.60
2022-12-08T10:47:45.462Z,20.90
2022-12-08T10:48:44.668Z,17.90
2022-12-08T10:49:44.707Z,16.90
2022-12-08T10:50:44.704Z,16.80
2022-12-08T10:51:44.664Z,18.10
2022-12-08T10:52:44.624Z,18.90
2022-12-08T10:53:44.634Z,19.00
2022-12-08T10:54:44.681Z,17.80
2022-12-08T10:55:44.605Z,17.50
2022-12-08T10:56:44.581Z,17.60
2022-12-08T10:57:44.597Z,20.00
2022-12-08T10:58:44.560Z,18.70
2022-12-08T10:59:44.631Z,18.50
2022-12-08T11:00:44.626Z,18.90
2022-12-08T11:01:44.626Z,18.50
2022-12-08T11:02:44.541Z,18.30
2022-12-08T11:03:44.503Z,22.00
2022-12-08T11:04:44.498Z,19.30
2022-12-08T11:05:44.489Z,21.60
2022-12-08T11:06:44.439Z,19.70
2022-12-08T11:07:44.517Z,20.20
2022-12-08T11:08:44.406Z,19.60
2022-12-08T11:09:44.457Z,22.30
2022-12-08T11:10:44.418Z,20.50
2022-12-08T11:11:44.408Z,19.80
2022-12-08T11:12:44.379Z,23.20
2022-12-08T11:13:44.409Z,21.20
2022-12-08T11:14:44.372Z,24.60
2022-12-08T11:15:44.347Z,21.10
2022-12-08T11:16:44.425Z,22.00
2022-12-08T11:17:44.359Z,24.60
2022-12-08T11:18:44.293Z,21.60
2022-12-08T11:19:44.303Z,19.90
2022-12-08T11:20:44.359Z,19.10
2022-12-08T11:21:44.286Z,23.90
2022-12-08T11:22:44.238Z,23.20
2022-12-08T11:23:44.258Z,23.50
2022-12-08T11:24:44.253Z,22.90
2022-12-08T11:25:44.226Z,19.80
2022-12-08T11:26:44.245Z,20.20
2022-12-08T11:27:44.215Z,23.00
2022-12-08T11:28:44.177Z,21.30
2022-12-08T11:29:44.206Z,21.20
2022-12-08T11:30:44.153Z,21.10
2022-12-08T11:31:44.289Z,23.60
2022-12-08T11:32:44.112Z,20.60
2022-12-08T11:33:44.130Z,20.70
2022-12-08T11:34:44.113Z,21.20
2022-12-08T11:35:44.096Z,22.00
2022-12-08T11:36:44.062Z,20.80
2022-12-08T11:37:44.091Z,20.70
2022-12-08T11:38:44.044Z,20.40
2022-12-08T11:39:44.125Z,19.00
2022-12-08T11:40:44.008Z,17.80
2022-12-08T11:41:44.023Z,22.80
2022-12-08T11:42:43.997Z,19.80
2022-12-08T11:43:44.000Z,21.00
2022-12-08T11:44:43.957Z,19.50
2022-12-08T11:45:44.074Z,17.90
2022-12-08T11:46:43.972Z,18.80
2022-12-08T11:47:43.955Z,19.40
2022-12-08T11:48:43.979Z,19.80
2022-12-08T11:49:43.929Z,19.50
2022-12-08T11:50:43.950Z,21.50
2022-12-08T11:51:43.897Z,21.00
2022-12-08T11:52:43.891Z,20.90
2022-12-08T11:53:43.869Z,19.40
2022-12-08T11:54:43.849Z,21.30
2022-12-08T11:55:48.094Z,20.70
2022-12-08T11:56:43.816Z,22.10
2022-12-08T11:57:43.876Z,19.20
2022-12-08T11:58:43.777Z,20.50
2022-12-08T11:59:43.808Z,22.00
2022-12-08T12:00:43.771Z,19.40
2022-12-08T12:01:43.868Z,17.80
2022-12-08T12:02:43.853Z,23.90
2022-12-08T12:03:43.817Z,18.20
2022-12-08T12:04:43.709Z,19.20
2022-12-08T12:06:54.889Z,16.90
2022-12-08T12:07:43.731Z,19.80
2022-12-08T12:08:43.651Z,19.10
2022-12-08T12:09:43.663Z,18.30
2022-12-08T12:10:43.632Z,20.10
2022-12-08T12:11:43.668Z,21.20
2022-12-08T12:12:43.617Z,17.90
2022-12-08T12:13:43.668Z,19.90
2022-12-08T12:14:43.594Z,18.60
2022-12-08T12:15:43.590Z,21.60
2022-12-08T12:16:43.643Z,20.20
2022-12-08T12:17:43.697Z,19.40
2022-12-08T12:18:43.528Z,18.30
2022-12-08T12:19:43.536Z,19.00
2022-12-08T12:20:43.541Z,21.40
2022-12-08T12:21:43.517Z,20.00
2022-12-08T12:22:43.510Z,22.90
2022-12-08T12:23:43.540Z,26.00
2022-12-08T12:24:43.462Z,21.00
2022-12-08T12:25:43.474Z,21.50
2022-12-08T12:26:43.431Z,21.20
2022-12-08T12:27:43.528Z,17.50
2022-12-08T12:28:43.426Z,18.30
2022-12-08T12:29:43.422Z,19.80
2022-12-08T12:30:43.457Z,18.30
2022-12-08T12:31:43.432Z,22.20
2022-12-08T12:32:43.359Z,20.90
2022-12-08T12:33:43.391Z,17.20
2022-12-08T12:34:43.347Z,18.10
2022-12-08T12:35:43.342Z,16.40
2022-12-08T12:36:43.300Z,22.50
2022-12-08T12:37:43.314Z,17.20
2022-12-08T12:38:43.332Z,21.00
2022-12-08T12:39:49.801Z,18.30
2022-12-08T12:40:43.255Z,17.20
2022-12-08T12:41:43.265Z,18.50
2022-12-08T12:42:43.217Z,18.10
2022-12-08T12:43:43.320Z,19.90
2022-12-08T12:44:43.190Z,17.00
2022-12-08T12:45:43.288Z,17.80